sensor_id;sensor_type;location;lat;lon;timestamp;temperature;humidity
70051;SHT30;57391;51.306;22.680;2023-07-09T00:01:59;17.24;66.91
70051;SHT30;57391;51.306;22.680;2023-07-09T00:04:26;17.23;67.03
70051;SHT30;57391;51.306;22.680;2023-07-09T00:06:55;17.21;67.15
70051;SHT30;57391;51.306;22.680;2023-07-09T00:09:27;17.20;67.21
70051;SHT30;57391;51.306;22.680;2023-07-09T00:11:54;17.21;67.31
70051;SHT30;57391;51.306;22.680;2023-07-09T00:14:22;17.20;67.34
70051;SHT30;57391;51.306;22.680;2023-07-09T00:16:49;17.19;67.32
70051;SHT30;57391;51.306;22.680;2023-07-09T00:19:19;17.17;67.44
70051;SHT30;57391;51.306;22.680;2023-07-09T00:21:50;17.13;67.46
70051;SHT30;57391;51.306;22.680;2023-07-09T00:24:20;17.11;67.50
70051;SHT30;57391;51.306;22.680;2023-07-09T00:26:47;17.09;67.51
70051;SHT30;57391;51.306;22.680;2023-07-09T00:29:16;17.07;67.48
70051;SHT30;57391;51.306;22.680;2023-07-09T00:31:43;17.05;67.34
70051;SHT30;57391;51.306;22.680;2023-07-09T00:34:13;17.04;67.34
70051;SHT30;57391;51.306;22.680;2023-07-09T00:36:43;17.00;67.53
70051;SHT30;57391;51.306;22.680;2023-07-09T00:39:14;16.99;67.60
70051;SHT30;57391;51.306;22.680;2023-07-09T00:41:49;16.95;67.63
70051;SHT30;57391;51.306;22.680;2023-07-09T00:49:14;16.86;67.90
70051;SHT30;57391;51.306;22.680;2023-07-09T00:51:53;16.83;67.96
70051;SHT30;57391;51.306;22.680;2023-07-09T00:54:28;16.82;68.05
70051;SHT30;57391;51.306;22.680;2023-07-09T00:57:09;16.79;68.07
70051;SHT30;57391;51.306;22.680;2023-07-09T00:59:49;16.78;67.92
70051;SHT30;57391;51.306;22.680;2023-07-09T01:02:23;16.77;67.91
70051;SHT30;57391;51.306;22.680;2023-07-09T01:04:51;16.75;68.21
70051;SHT30;57391;51.306;22.680;2023-07-09T01:07:27;16.73;68.07
70051;SHT30;57391;51.306;22.680;2023-07-09T01:09:55;16.72;67.94
70051;SHT30;57391;51.306;22.680;2023-07-09T01:12:22;16.71;68.15
70051;SHT30;57391;51.306;22.680;2023-07-09T01:14:51;16.68;68.20
70051;SHT30;57391;51.306;22.680;2023-07-09T01:17:27;16.66;68.52
70051;SHT30;57391;51.306;22.680;2023-07-09T01:19:55;16.65;68.61
70051;SHT30;57391;51.306;22.680;2023-07-09T01:22:23;16.63;68.47
70051;SHT30;57391;51.306;22.680;2023-07-09T01:27:27;16.61;68.07
70051;SHT30;57391;51.306;22.680;2023-07-09T01:30:08;16.59;68.03
70051;SHT30;57391;51.306;22.680;2023-07-09T01:32:50;16.56;68.49
70051;SHT30;57391;51.306;22.680;2023-07-09T01:35:19;16.54;68.56
70051;SHT30;57391;51.306;22.680;2023-07-09T01:37:47;16.50;68.36
70051;SHT30;57391;51.306;22.680;2023-07-09T01:40:17;16.42;68.33
70051;SHT30;57391;51.306;22.680;2023-07-09T01:42:47;16.36;68.37
70051;SHT30;57391;51.306;22.680;2023-07-09T01:45:14;16.30;68.37
70051;SHT30;57391;51.306;22.680;2023-07-09T01:47:42;16.25;68.45
70051;SHT30;57391;51.306;22.680;2023-07-09T01:50:10;16.19;68.49
70051;SHT30;57391;51.306;22.680;2023-07-09T01:52:38;16.13;68.46
70051;SHT30;57391;51.306;22.680;2023-07-09T01:55:10;16.09;68.59
70051;SHT30;57391;51.306;22.680;2023-07-09T01:57:38;16.04;68.64
70051;SHT30;57391;51.306;22.680;2023-07-09T02:00:08;16.02;68.77
70051;SHT30;57391;51.306;22.680;2023-07-09T02:02:44;16.01;68.93
70051;SHT30;57391;51.306;22.680;2023-07-09T02:05:15;15.98;68.96
70051;SHT30;57391;51.306;22.680;2023-07-09T02:07:46;15.92;69.00
70051;SHT30;57391;51.306;22.680;2023-07-09T02:10:14;15.89;69.05
70051;SHT30;57391;51.306;22.680;2023-07-09T02:12:44;15.86;69.14
70051;SHT30;57391;51.306;22.680;2023-07-09T02:15:12;15.83;69.13
70051;SHT30;57391;51.306;22.680;2023-07-09T02:17:39;15.82;69.15
70051;SHT30;57391;51.306;22.680;2023-07-09T02:20:07;15.81;69.30
70051;SHT30;57391;51.306;22.680;2023-07-09T02:22:37;15.80;69.26
70051;SHT30;57391;51.306;22.680;2023-07-09T02:25:06;15.80;69.30
70051;SHT30;57391;51.306;22.680;2023-07-09T02:27:35;15.79;69.36
70051;SHT30;57391;51.306;22.680;2023-07-09T02:30:04;15.81;69.31
70051;SHT30;57391;51.306;22.680;2023-07-09T02:32:33;15.82;69.26
70051;SHT30;57391;51.306;22.680;2023-07-09T02:35:00;15.80;69.31
70051;SHT30;57391;51.306;22.680;2023-07-09T02:37:28;15.82;69.54
70051;SHT30;57391;51.306;22.680;2023-07-09T02:39:55;15.87;70.14
70051;SHT30;57391;51.306;22.680;2023-07-09T02:42:22;15.90;70.19
70051;SHT30;57391;51.306;22.680;2023-07-09T02:44:50;15.90;70.09
70051;SHT30;57391;51.306;22.680;2023-07-09T02:47:18;15.87;70.18
70051;SHT30;57391;51.306;22.680;2023-07-09T02:49:46;15.85;70.28
70051;SHT30;57391;51.306;22.680;2023-07-09T02:52:13;15.84;70.51
70051;SHT30;57391;51.306;22.680;2023-07-09T02:54:40;15.82;70.56
70051;SHT30;57391;51.306;22.680;2023-07-09T02:57:07;15.83;70.94
70051;SHT30;57391;51.306;22.680;2023-07-09T02:59:34;15.84;70.82
70051;SHT30;57391;51.306;22.680;2023-07-09T03:02:01;15.84;71.03
70051;SHT30;57391;51.306;22.680;2023-07-09T03:04:29;15.84;71.17
70051;SHT30;57391;51.306;22.680;2023-07-09T03:06:57;15.88;71.26
70051;SHT30;57391;51.306;22.680;2023-07-09T03:09:26;15.92;71.12
70051;SHT30;57391;51.306;22.680;2023-07-09T03:11:54;15.95;71.17
70051;SHT30;57391;51.306;22.680;2023-07-09T03:14:21;15.99;71.07
70051;SHT30;57391;51.306;22.680;2023-07-09T03:16:49;16.02;71.10
70051;SHT30;57391;51.306;22.680;2023-07-09T03:19:16;16.06;71.31
70051;SHT30;57391;51.306;22.680;2023-07-09T03:21:43;16.12;71.31
70051;SHT30;57391;51.306;22.680;2023-07-09T03:24:10;16.16;71.28
70051;SHT30;57391;51.306;22.680;2023-07-09T03:26:37;16.20;71.35
70051;SHT30;57391;51.306;22.680;2023-07-09T03:29:04;16.24;71.39
70051;SHT30;57391;51.306;22.680;2023-07-09T03:31:30;16.26;71.40
70051;SHT30;57391;51.306;22.680;2023-07-09T03:34:01;16.28;71.45
70051;SHT30;57391;51.306;22.680;2023-07-09T03:36:28;16.30;71.56
70051;SHT30;57391;51.306;22.680;2023-07-09T03:38:55;16.33;71.51
70051;SHT30;57391;51.306;22.680;2023-07-09T03:41:22;16.37;71.50
70051;SHT30;57391;51.306;22.680;2023-07-09T03:43:51;16.48;71.49
70051;SHT30;57391;51.306;22.680;2023-07-09T03:46:19;17.08;70.85
70051;SHT30;57391;51.306;22.680;2023-07-09T03:48:46;18.20;68.92
70051;SHT30;57391;51.306;22.680;2023-07-09T03:51:13;19.37;66.58
70051;SHT30;57391;51.306;22.680;2023-07-09T03:53:40;20.40;64.29
70051;SHT30;57391;51.306;22.680;2023-07-09T03:56:07;21.40;62.14
70051;SHT30;57391;51.306;22.680;2023-07-09T03:58:34;22.49;59.99
70051;SHT30;57391;51.306;22.680;2023-07-09T04:01:02;23.66;57.46
70051;SHT30;57391;51.306;22.680;2023-07-09T04:03:29;24.97;54.51
70051;SHT30;57391;51.306;22.680;2023-07-09T04:05:56;26.27;51.77
70051;SHT30;57391;51.306;22.680;2023-07-09T04:08:22;27.50;49.23
70051;SHT30;57391;51.306;22.680;2023-07-09T04:10:55;28.71;47.02
70051;SHT30;57391;51.306;22.680;2023-07-09T04:13:29;29.91;44.73
70051;SHT30;57391;51.306;22.680;2023-07-09T04:15:56;31.00;42.44
70051;SHT30;57391;51.306;22.680;2023-07-09T04:18:23;32.02;40.08
70051;SHT30;57391;51.306;22.680;2023-07-09T04:20:50;32.92;38.26
70051;SHT30;57391;51.306;22.680;2023-07-09T04:23:19;33.62;37.22
70051;SHT30;57391;51.306;22.680;2023-07-09T04:25:46;34.38;35.87
70051;SHT30;57391;51.306;22.680;2023-07-09T04:28:14;35.03;34.46
70051;SHT30;57391;51.306;22.680;2023-07-09T04:30:59;35.63;33.46
70051;SHT30;57391;51.306;22.680;2023-07-09T04:33:26;36.12;32.39
70051;SHT30;57391;51.306;22.680;2023-07-09T04:35:53;36.42;31.54
70051;SHT30;57391;51.306;22.680;2023-07-09T04:38:21;36.83;31.03
70051;SHT30;57391;51.306;22.680;2023-07-09T04:40:49;37.24;30.80
70051;SHT30;57391;51.306;22.680;2023-07-09T04:43:16;37.24;30.63
70051;SHT30;57391;51.306;22.680;2023-07-09T04:45:42;36.45;30.63
70051;SHT30;57391;51.306;22.680;2023-07-09T04:48:09;35.26;31.70
70051;SHT30;57391;51.306;22.680;2023-07-09T04:50:36;34.28;32.36
70051;SHT30;57391;51.306;22.680;2023-07-09T04:53:03;33.58;33.37
70051;SHT30;57391;51.306;22.680;2023-07-09T04:55:30;33.48;33.99
70051;SHT30;57391;51.306;22.680;2023-07-09T04:57:56;34.22;33.26
70051;SHT30;57391;51.306;22.680;2023-07-09T05:00:24;35.03;32.26
70051;SHT30;57391;51.306;22.680;2023-07-09T05:02:50;35.01;32.60
70051;SHT30;57391;51.306;22.680;2023-07-09T05:05:17;34.29;33.32
70051;SHT30;57391;51.306;22.680;2023-07-09T05:07:44;33.51;33.51
70051;SHT30;57391;51.306;22.680;2023-07-09T05:10:11;32.81;34.22
70051;SHT30;57391;51.306;22.680;2023-07-09T05:12:51;32.33;34.65
70051;SHT30;57391;51.306;22.680;2023-07-09T05:15:21;32.48;34.59
70051;SHT30;57391;51.306;22.680;2023-07-09T05:17:49;33.43;33.62
70051;SHT30;57391;51.306;22.680;2023-07-09T05:20:16;34.48;32.48
70051;SHT30;57391;51.306;22.680;2023-07-09T05:22:43;35.26;31.47
70051;SHT30;57391;51.306;22.680;2023-07-09T05:25:10;35.59;31.30
70051;SHT30;57391;51.306;22.680;2023-07-09T05:27:38;35.26;31.75
70051;SHT30;57391;51.306;22.680;2023-07-09T05:30:05;34.52;32.14
70051;SHT30;57391;51.306;22.680;2023-07-09T05:32:33;33.94;32.13
70051;SHT30;57391;51.306;22.680;2023-07-09T05:35:00;33.54;32.47
70051;SHT30;57391;51.306;22.680;2023-07-09T05:37:27;33.38;32.02
70051;SHT30;57391;51.306;22.680;2023-07-09T05:39:54;33.50;31.59
70051;SHT30;57391;51.306;22.680;2023-07-09T05:42:21;34.23;31.37
70051;SHT30;57391;51.306;22.680;2023-07-09T05:44:48;35.03;31.07
70051;SHT30;57391;51.306;22.680;2023-07-09T05:47:15;35.80;30.06
70051;SHT30;57391;51.306;22.680;2023-07-09T05:49:42;36.37;29.22
70051;SHT30;57391;51.306;22.680;2023-07-09T05:52:09;36.77;28.43
70051;SHT30;57391;51.306;22.680;2023-07-09T05:54:35;37.07;27.72
70051;SHT30;57391;51.306;22.680;2023-07-09T05:57:02;36.85;28.15
70051;SHT30;57391;51.306;22.680;2023-07-09T05:59:29;36.16;28.80
70051;SHT30;57391;51.306;22.680;2023-07-09T06:01:56;35.49;29.59
70051;SHT30;57391;51.306;22.680;2023-07-09T06:04:23;34.99;30.34
70051;SHT30;57391;51.306;22.680;2023-07-09T06:06:52;34.56;30.32
70051;SHT30;57391;51.306;22.680;2023-07-09T06:09:20;34.16;30.25
70051;SHT30;57391;51.306;22.680;2023-07-09T06:11:46;34.12;30.80
70051;SHT30;57391;51.306;22.680;2023-07-09T06:14:13;34.61;30.13
70051;SHT30;57391;51.306;22.680;2023-07-09T06:16:40;35.09;29.69
70051;SHT30;57391;51.306;22.680;2023-07-09T06:19:07;35.60;29.81
70051;SHT30;57391;51.306;22.680;2023-07-09T06:21:34;36.13;29.01
70051;SHT30;57391;51.306;22.680;2023-07-09T06:24:01;36.54;28.62
70051;SHT30;57391;51.306;22.680;2023-07-09T06:26:28;37.01;27.89
70051;SHT30;57391;51.306;22.680;2023-07-09T06:28:55;37.37;26.84
70051;SHT30;57391;51.306;22.680;2023-07-09T06:31:21;37.67;26.39
70051;SHT30;57391;51.306;22.680;2023-07-09T06:33:50;38.10;26.09
70051;SHT30;57391;51.306;22.680;2023-07-09T06:36:18;38.41;25.47
70051;SHT30;57391;51.306;22.680;2023-07-09T06:38:46;38.42;25.54
70051;SHT30;57391;51.306;22.680;2023-07-09T06:41:13;38.10;25.93
70051;SHT30;57391;51.306;22.680;2023-07-09T06:43:41;37.58;26.35
70051;SHT30;57391;51.306;22.680;2023-07-09T06:46:10;37.03;26.35
70051;SHT30;57391;51.306;22.680;2023-07-09T06:48:39;36.50;26.90
70051;SHT30;57391;51.306;22.680;2023-07-09T06:51:06;36.07;27.30
70051;SHT30;57391;51.306;22.680;2023-07-09T06:53:33;35.72;27.57
70051;SHT30;57391;51.306;22.680;2023-07-09T06:56:00;35.60;27.83
70051;SHT30;57391;51.306;22.680;2023-07-09T06:58:29;35.63;27.65
70051;SHT30;57391;51.306;22.680;2023-07-09T07:01:02;35.66;27.51
70051;SHT30;57391;51.306;22.680;2023-07-09T07:03:31;35.84;27.23
70051;SHT30;57391;51.306;22.680;2023-07-09T07:06:00;35.95;26.64
70051;SHT30;57391;51.306;22.680;2023-07-09T07:08:28;36.10;26.97
70051;SHT30;57391;51.306;22.680;2023-07-09T07:10:56;36.29;27.02
70051;SHT30;57391;51.306;22.680;2023-07-09T07:13:32;36.53;26.80
70051;SHT30;57391;51.306;22.680;2023-07-09T07:16:05;36.72;26.57
70051;SHT30;57391;51.306;22.680;2023-07-09T07:18:35;36.81;26.36
70051;SHT30;57391;51.306;22.680;2023-07-09T07:21:02;36.95;26.23
70051;SHT30;57391;51.306;22.680;2023-07-09T07:23:31;37.05;26.51
70051;SHT30;57391;51.306;22.680;2023-07-09T07:25:58;37.13;26.10
70051;SHT30;57391;51.306;22.680;2023-07-09T07:28:26;37.18;26.56
70051;SHT30;57391;51.306;22.680;2023-07-09T07:31:03;37.29;26.16
70051;SHT30;57391;51.306;22.680;2023-07-09T07:33:34;37.29;25.95
70051;SHT30;57391;51.306;22.680;2023-07-09T07:36:05;37.36;25.60
70051;SHT30;57391;51.306;22.680;2023-07-09T07:38:33;37.43;25.89
70051;SHT30;57391;51.306;22.680;2023-07-09T07:41:01;37.30;25.80
70051;SHT30;57391;51.306;22.680;2023-07-09T07:43:28;37.00;25.71
70051;SHT30;57391;51.306;22.680;2023-07-09T07:45:55;36.50;26.30
70051;SHT30;57391;51.306;22.680;2023-07-09T07:48:22;36.19;26.87
70051;SHT30;57391;51.306;22.680;2023-07-09T07:50:49;35.80;27.36
70051;SHT30;57391;51.306;22.680;2023-07-09T07:53:16;35.28;28.17
70051;SHT30;57391;51.306;22.680;2023-07-09T07:55:43;34.94;29.04
70051;SHT30;57391;51.306;22.680;2023-07-09T07:58:11;34.82;29.77
70051;SHT30;57391;51.306;22.680;2023-07-09T08:00:40;34.91;29.70
70051;SHT30;57391;51.306;22.680;2023-07-09T08:03:07;34.91;29.72
70051;SHT30;57391;51.306;22.680;2023-07-09T08:05:34;35.00;29.15
70051;SHT30;57391;51.306;22.680;2023-07-09T08:08:00;35.04;29.22
70051;SHT30;57391;51.306;22.680;2023-07-09T08:10:27;34.97;29.62
70051;SHT30;57391;51.306;22.680;2023-07-09T08:12:54;34.98;30.09
70051;SHT30;57391;51.306;22.680;2023-07-09T08:15:23;35.16;30.22
70051;SHT30;57391;51.306;22.680;2023-07-09T08:17:51;35.18;29.91
70051;SHT30;57391;51.306;22.680;2023-07-09T08:20:18;35.11;29.46
70051;SHT30;57391;51.306;22.680;2023-07-09T08:22:44;35.08;29.70
70051;SHT30;57391;51.306;22.680;2023-07-09T08:25:12;35.04;29.91
70051;SHT30;57391;51.306;22.680;2023-07-09T08:27:39;35.03;30.84
70051;SHT30;57391;51.306;22.680;2023-07-09T08:30:06;35.04;30.51
70051;SHT30;57391;51.306;22.680;2023-07-09T08:32:34;34.95;30.08
70051;SHT30;57391;51.306;22.680;2023-07-09T08:35:01;34.95;30.61
70051;SHT30;57391;51.306;22.680;2023-07-09T08:37:29;34.99;30.51
70051;SHT30;57391;51.306;22.680;2023-07-09T08:39:56;35.03;30.55
70051;SHT30;57391;51.306;22.680;2023-07-09T08:42:29;35.06;31.23
70051;SHT30;57391;51.306;22.680;2023-07-09T08:45:18;35.09;30.92
70051;SHT30;57391;51.306;22.680;2023-07-09T08:48:15;34.99;31.50
70051;SHT30;57391;51.306;22.680;2023-07-09T08:50:53;34.98;30.21
70051;SHT30;57391;51.306;22.680;2023-07-09T08:53:36;34.89;30.09
70051;SHT30;57391;51.306;22.680;2023-07-09T08:56:19;34.74;30.92
70051;SHT30;57391;51.306;22.680;2023-07-09T08:58:49;34.68;29.90
70051;SHT30;57391;51.306;22.680;2023-07-09T09:01:19;34.57;30.03
70051;SHT30;57391;51.306;22.680;2023-07-09T09:03:59;34.49;30.67
70051;SHT30;57391;51.306;22.680;2023-07-09T09:06:32;34.46;31.03
70051;SHT30;57391;51.306;22.680;2023-07-09T09:09:08;34.35;31.54
70051;SHT30;57391;51.306;22.680;2023-07-09T09:11:46;34.13;31.65
70051;SHT30;57391;51.306;22.680;2023-07-09T09:14:38;33.76;31.81
70051;SHT30;57391;51.306;22.680;2023-07-09T09:17:23;33.46;32.21
70051;SHT30;57391;51.306;22.680;2023-07-09T09:19:56;33.19;32.76
70051;SHT30;57391;51.306;22.680;2023-07-09T09:22:29;33.10;33.02
70051;SHT30;57391;51.306;22.680;2023-07-09T09:27:42;33.10;32.47
70051;SHT30;57391;51.306;22.680;2023-07-09T09:30:11;33.08;32.73
70051;SHT30;57391;51.306;22.680;2023-07-09T09:32:44;33.07;32.98
70051;SHT30;57391;51.306;22.680;2023-07-09T09:35:25;32.95;32.31
70051;SHT30;57391;51.306;22.680;2023-07-09T09:38:01;32.92;32.81
70051;SHT30;57391;51.306;22.680;2023-07-09T09:40:35;32.95;32.82
70051;SHT30;57391;51.306;22.680;2023-07-09T09:43:08;32.75;32.11
70051;SHT30;57391;51.306;22.680;2023-07-09T09:45:40;32.59;32.62
70051;SHT30;57391;51.306;22.680;2023-07-09T09:48:15;32.52;31.94
70051;SHT30;57391;51.306;22.680;2023-07-09T09:50:47;32.53;32.32
70051;SHT30;57391;51.306;22.680;2023-07-09T09:53:18;32.56;32.49
70051;SHT30;57391;51.306;22.680;2023-07-09T09:55:53;32.42;31.91
70051;SHT30;57391;51.306;22.680;2023-07-09T09:58:27;32.24;31.88
70051;SHT30;57391;51.306;22.680;2023-07-09T10:00:56;32.16;32.13
70051;SHT30;57391;51.306;22.680;2023-07-09T10:03:32;32.17;32.59
70051;SHT30;57391;51.306;22.680;2023-07-09T10:06:15;32.08;31.29
70051;SHT30;57391;51.306;22.680;2023-07-09T10:08:58;32.02;31.44
70051;SHT30;57391;51.306;22.680;2023-07-09T10:11:46;31.91;31.37
70051;SHT30;57391;51.306;22.680;2023-07-09T10:21:05;31.95;31.79
70051;SHT30;57391;51.306;22.680;2023-07-09T10:23:34;31.93;32.50
70051;SHT30;57391;51.306;22.680;2023-07-09T10:26:13;31.86;32.22
70051;SHT30;57391;51.306;22.680;2023-07-09T10:34:21;31.96;33.56
70051;SHT30;57391;51.306;22.680;2023-07-09T10:40:36;31.92;32.71
70051;SHT30;57391;51.306;22.680;2023-07-09T10:43:16;31.92;32.57
70051;SHT30;57391;51.306;22.680;2023-07-09T10:45:56;31.95;31.84
70051;SHT30;57391;51.306;22.680;2023-07-09T10:48:34;31.97;32.61
70051;SHT30;57391;51.306;22.680;2023-07-09T10:51:16;31.92;32.34
70051;SHT30;57391;51.306;22.680;2023-07-09T10:53:52;31.84;32.33
70051;SHT30;57391;51.306;22.680;2023-07-09T10:56:34;31.82;32.70
70051;SHT30;57391;51.306;22.680;2023-07-09T10:59:13;31.84;32.95
70051;SHT30;57391;51.306;22.680;2023-07-09T11:01:47;31.87;33.40
70051;SHT30;57391;51.306;22.680;2023-07-09T11:04:31;31.84;32.96
70051;SHT30;57391;51.306;22.680;2023-07-09T11:07:07;31.86;33.60
70051;SHT30;57391;51.306;22.680;2023-07-09T11:09:42;31.86;32.77
70051;SHT30;57391;51.306;22.680;2023-07-09T11:12:14;31.82;33.08
70051;SHT30;57391;51.306;22.680;2023-07-09T11:14:51;31.75;32.60
70051;SHT30;57391;51.306;22.680;2023-07-09T11:17:25;31.71;33.06
70051;SHT30;57391;51.306;22.680;2023-07-09T11:19:55;31.56;32.72
70051;SHT30;57391;51.306;22.680;2023-07-09T11:22:37;31.22;32.29
70051;SHT30;57391;51.306;22.680;2023-07-09T11:27:51;30.98;33.08
70051;SHT30;57391;51.306;22.680;2023-07-09T11:30:31;31.05;33.06
70051;SHT30;57391;51.306;22.680;2023-07-09T11:33:03;31.06;32.87
70051;SHT30;57391;51.306;22.680;2023-07-09T11:35:45;31.05;32.69
70051;SHT30;57391;51.306;22.680;2023-07-09T11:38:39;31.08;32.61
70051;SHT30;57391;51.306;22.680;2023-07-09T11:52:38;31.15;33.01
70051;SHT30;57391;51.306;22.680;2023-07-09T11:58:10;31.04;33.52
70051;SHT30;57391;51.306;22.680;2023-07-09T12:00:43;30.99;33.08
70051;SHT30;57391;51.306;22.680;2023-07-09T12:03:28;30.95;33.13
70051;SHT30;57391;51.306;22.680;2023-07-09T12:06:00;30.97;33.79
70051;SHT30;57391;51.306;22.680;2023-07-09T12:08:42;30.96;32.66
70051;SHT30;57391;51.306;22.680;2023-07-09T12:11:27;30.94;32.75
70051;SHT30;57391;51.306;22.680;2023-07-09T12:14:01;30.91;32.56
70051;SHT30;57391;51.306;22.680;2023-07-09T12:16:33;30.83;32.49
70051;SHT30;57391;51.306;22.680;2023-07-09T12:19:04;30.75;32.32
70051;SHT30;57391;51.306;22.680;2023-07-09T12:21:33;30.68;32.42
70051;SHT30;57391;51.306;22.680;2023-07-09T12:27:22;30.74;32.56
70051;SHT30;57391;51.306;22.680;2023-07-09T12:29:53;30.75;32.01
70051;SHT30;57391;51.306;22.680;2023-07-09T12:32:23;30.77;32.65
70051;SHT30;57391;51.306;22.680;2023-07-09T12:34:54;30.73;32.23
70051;SHT30;57391;51.306;22.680;2023-07-09T12:37:24;30.66;32.73
70051;SHT30;57391;51.306;22.680;2023-07-09T12:39:58;30.58;32.39
70051;SHT30;57391;51.306;22.680;2023-07-09T12:42:31;30.52;32.52
70051;SHT30;57391;51.306;22.680;2023-07-09T12:45:02;30.50;31.80
70051;SHT30;57391;51.306;22.680;2023-07-09T12:47:29;30.45;31.86
70051;SHT30;57391;51.306;22.680;2023-07-09T12:50:01;30.44;31.86
70051;SHT30;57391;51.306;22.680;2023-07-09T12:52:46;30.46;31.94
70051;SHT30;57391;51.306;22.680;2023-07-09T12:55:21;30.51;31.00
70051;SHT30;57391;51.306;22.680;2023-07-09T12:57:56;30.47;30.99
70051;SHT30;57391;51.306;22.680;2023-07-09T13:00:27;30.43;31.35
70051;SHT30;57391;51.306;22.680;2023-07-09T13:02:57;30.34;30.78
70051;SHT30;57391;51.306;22.680;2023-07-09T13:05:26;30.27;31.29
70051;SHT30;57391;51.306;22.680;2023-07-09T13:08:00;30.24;31.11
70051;SHT30;57391;51.306;22.680;2023-07-09T13:10:29;30.24;31.28
70051;SHT30;57391;51.306;22.680;2023-07-09T13:13:05;30.25;31.92
70051;SHT30;57391;51.306;22.680;2023-07-09T13:15:39;30.27;31.70
70051;SHT30;57391;51.306;22.680;2023-07-09T13:18:10;30.23;31.13
70051;SHT30;57391;51.306;22.680;2023-07-09T13:20:44;30.23;31.39
70051;SHT30;57391;51.306;22.680;2023-07-09T13:23:16;30.23;31.70
70051;SHT30;57391;51.306;22.680;2023-07-09T13:25:47;30.22;31.74
70051;SHT30;57391;51.306;22.680;2023-07-09T13:28:17;30.22;30.98
70051;SHT30;57391;51.306;22.680;2023-07-09T13:30:57;30.18;30.20
70051;SHT30;57391;51.306;22.680;2023-07-09T13:33:28;30.15;30.33
70051;SHT30;57391;51.306;22.680;2023-07-09T13:35:55;30.14;30.65
70051;SHT30;57391;51.306;22.680;2023-07-09T13:38:23;30.10;30.42
70051;SHT30;57391;51.306;22.680;2023-07-09T13:40:57;29.97;30.13
70051;SHT30;57391;51.306;22.680;2023-07-09T13:43:29;29.87;30.56
70051;SHT30;57391;51.306;22.680;2023-07-09T13:46:00;29.81;30.05
70051;SHT30;57391;51.306;22.680;2023-07-09T13:48:31;29.74;30.66
70051;SHT30;57391;51.306;22.680;2023-07-09T13:51:01;29.76;31.40
70051;SHT30;57391;51.306;22.680;2023-07-09T13:53:53;29.83;31.09
70051;SHT30;57391;51.306;22.680;2023-07-09T13:56:22;29.90;31.35
70051;SHT30;57391;51.306;22.680;2023-07-09T13:58:50;29.91;31.81
70051;SHT30;57391;51.306;22.680;2023-07-09T14:01:18;29.90;31.76
70051;SHT30;57391;51.306;22.680;2023-07-09T14:03:49;29.89;31.79
70051;SHT30;57391;51.306;22.680;2023-07-09T14:06:20;29.85;31.43
70051;SHT30;57391;51.306;22.680;2023-07-09T14:08:47;29.85;32.19
70051;SHT30;57391;51.306;22.680;2023-07-09T14:11:15;29.85;31.92
70051;SHT30;57391;51.306;22.680;2023-07-09T14:13:44;29.84;31.97
70051;SHT30;57391;51.306;22.680;2023-07-09T14:16:12;29.77;31.52
70051;SHT30;57391;51.306;22.680;2023-07-09T14:18:41;29.70;31.80
70051;SHT30;57391;51.306;22.680;2023-07-09T14:21:12;29.68;32.60
70051;SHT30;57391;51.306;22.680;2023-07-09T14:23:41;29.63;31.94
70051;SHT30;57391;51.306;22.680;2023-07-09T14:26:09;29.60;31.61
70051;SHT30;57391;51.306;22.680;2023-07-09T14:28:37;29.55;31.75
70051;SHT30;57391;51.306;22.680;2023-07-09T14:31:27;29.51;31.50
70051;SHT30;57391;51.306;22.680;2023-07-09T14:33:56;29.49;31.91
70051;SHT30;57391;51.306;22.680;2023-07-09T14:36:42;29.47;31.77
70051;SHT30;57391;51.306;22.680;2023-07-09T14:39:09;29.44;31.67
70051;SHT30;57391;51.306;22.680;2023-07-09T14:41:37;29.40;32.27
70051;SHT30;57391;51.306;22.680;2023-07-09T14:44:05;29.40;32.32
70051;SHT30;57391;51.306;22.680;2023-07-09T14:46:51;29.33;32.04
70051;SHT30;57391;51.306;22.680;2023-07-09T14:49:20;29.28;32.21
70051;SHT30;57391;51.306;22.680;2023-07-09T14:51:49;29.22;32.35
70051;SHT30;57391;51.306;22.680;2023-07-09T14:54:22;29.10;32.53
70051;SHT30;57391;51.306;22.680;2023-07-09T14:56:53;29.01;33.25
70051;SHT30;57391;51.306;22.680;2023-07-09T14:59:23;29.02;33.55
70051;SHT30;57391;51.306;22.680;2023-07-09T15:01:52;29.02;32.86
70051;SHT30;57391;51.306;22.680;2023-07-09T15:04:32;29.01;32.79
70051;SHT30;57391;51.306;22.680;2023-07-09T15:07:00;28.98;32.08
70051;SHT30;57391;51.306;22.680;2023-07-09T15:09:27;28.88;32.54
70051;SHT30;57391;51.306;22.680;2023-07-09T15:11:56;28.83;32.65
70051;SHT30;57391;51.306;22.680;2023-07-09T15:14:26;28.78;31.92
70051;SHT30;57391;51.306;22.680;2023-07-09T15:16:54;28.76;32.90
70051;SHT30;57391;51.306;22.680;2023-07-09T15:19:22;28.76;32.91
70051;SHT30;57391;51.306;22.680;2023-07-09T15:21:49;28.75;32.96
70051;SHT30;57391;51.306;22.680;2023-07-09T15:24:22;28.73;32.95
70051;SHT30;57391;51.306;22.680;2023-07-09T15:26:57;28.69;32.59
70051;SHT30;57391;51.306;22.680;2023-07-09T15:29:27;28.62;32.53
70051;SHT30;57391;51.306;22.680;2023-07-09T15:31:55;28.57;32.47
70051;SHT30;57391;51.306;22.680;2023-07-09T15:34:24;28.53;32.32
70051;SHT30;57391;51.306;22.680;2023-07-09T15:36:51;28.50;32.59
70051;SHT30;57391;51.306;22.680;2023-07-09T15:39:19;28.47;32.42
70051;SHT30;57391;51.306;22.680;2023-07-09T15:41:47;28.44;32.50
70051;SHT30;57391;51.306;22.680;2023-07-09T15:44:15;28.40;32.41
70051;SHT30;57391;51.306;22.680;2023-07-09T15:46:50;28.36;32.19
70051;SHT30;57391;51.306;22.680;2023-07-09T15:49:20;28.34;33.06
70051;SHT30;57391;51.306;22.680;2023-07-09T15:51:49;28.32;32.99
70051;SHT30;57391;51.306;22.680;2023-07-09T15:54:19;28.32;33.31
70051;SHT30;57391;51.306;22.680;2023-07-09T15:56:51;28.27;32.77
70051;SHT30;57391;51.306;22.680;2023-07-09T15:59:27;28.21;32.64
70051;SHT30;57391;51.306;22.680;2023-07-09T16:01:57;28.14;32.24
70051;SHT30;57391;51.306;22.680;2023-07-09T16:04:25;28.10;33.25
70051;SHT30;57391;51.306;22.680;2023-07-09T16:06:54;28.07;33.39
70051;SHT30;57391;51.306;22.680;2023-07-09T16:09:21;28.07;33.06
70051;SHT30;57391;51.306;22.680;2023-07-09T16:11:49;28.04;33.09
70051;SHT30;57391;51.306;22.680;2023-07-09T16:14:23;27.99;33.25
70051;SHT30;57391;51.306;22.680;2023-07-09T16:16:53;27.93;32.97
70051;SHT30;57391;51.306;22.680;2023-07-09T16:19:24;27.85;33.37
70051;SHT30;57391;51.306;22.680;2023-07-09T16:21:54;27.78;33.74
70051;SHT30;57391;51.306;22.680;2023-07-09T16:24:29;27.71;33.94